Time;durP1;ratioP1;P1;durP2;ratioP2;P2;SDS_P1;SDS_P2;PMS_P1;PMS_P2;Temp;Humidity;BMP_temperature;BMP_pressure;BME280_temperature;BME280_humidity;BME280_pressure;Samples;Min_cycle;Max_cycle;Signal;HPM_P1;HPM_P2
2022/07/03 00:02:13;;;;;;;0.40;0.40;;;;;;;;;;4974489;28;20045;-82
2022/07/03 00:04:38;;;;;;;0.75;0.73;;;;;;;;;;4973726;28;20027;-81
2022/07/03 00:07:06;;;;;;;0.30;0.30;;;;;;;;;;4974338;28;20034;-82
2022/07/03 00:09:31;;;;;;;1.73;0.68;;;;;;;;;;4974610;28;20034;-81
2022/07/03 00:11:59;;;;;;;0.50;0.50;;;;;;;;;;4974928;28;20038;-82
2022/07/03 00:14:27;;;;;;;0.52;0.40;;;;;;;;;;4975577;28;20031;-83
2022/07/03 00:16:52;;;;;;;0.20;0.20;;;;;;;;;;4974442;28;20480;-82
2022/07/03 00:19:18;;;;;;;0.20;0.20;;;;;;;;;;4975079;28;20050;-83
2022/07/03 00:21:53;;;;;;;0.88;0.60;;;;;;;;;;4975866;28;20030;-82
2022/07/03 00:24:44;;;;;;;4.82;0.98;;;;;;;;;;4972300;28;20510;-81
2022/07/03 00:27:14;;;;;;;0.50;0.50;;;;;;;;;;4960886;28;20066;-82
2022/07/03 00:29:44;;;;;;;0.50;0.40;;;;;;;;;;4973841;28;20032;-81
2022/07/03 00:32:11;;;;;;;0.65;0.65;;;;;;;;;;4975442;28;20018;-79
2022/07/03 00:34:40;;;;;;;0.65;0.65;;;;;;;;;;4974941;28;20037;-80
2022/07/03 00:37:08;;;;;;;1.65;0.98;;;;;;;;;;4956517;28;20043;-79
2022/07/03 00:39:36;;;;;;;1.02;0.90;;;;;;;;;;4963152;28;20042;-81
2022/07/03 00:42:03;;;;;;;0.93;0.82;;;;;;;;;;4954360;29;20031;-82
2022/07/03 00:44:30;;;;;;;1.30;0.65;;;;;;;;;;4959009;28;20050;-80
2022/07/03 00:46:58;;;;;;;0.20;0.20;;;;;;;;;;4976391;28;20086;-83
2022/07/03 00:49:24;;;;;;;2.78;0.90;;;;;;;;;;4974162;28;20345;-83
2022/07/03 00:51:53;;;;;;;0.45;0.32;;;;;;;;;;4975477;28;20105;-83
2022/07/03 00:54:22;;;;;;;1.00;0.75;;;;;;;;;;4973837;28;20019;-82
2022/07/03 00:56:52;;;;;;;0.80;0.50;;;;;;;;;;4975076;28;20027;-82
2022/07/03 00:59:18;;;;;;;2.53;0.50;;;;;;;;;;4975326;28;20027;-81
2022/07/03 01:01:47;;;;;;;2.33;0.93;;;;;;;;;;4976233;28;20579;-82
2022/07/03 01:04:46;;;;;;;0.80;0.52;;;;;;;;;;4954970;28;20050;-80
2022/07/03 01:07:26;;;;;;;0.20;0.20;;;;;;;;;;4969933;28;20046;-80
2022/07/03 01:10:12;;;;;;;0.17;0.17;;;;;;;;;;4973744;28;20057;-80
2022/07/03 01:12:46;;;;;;;0.30;0.30;;;;;;;;;;4975083;28;20026;-82
2022/07/03 01:15:28;;;;;;;1.45;0.60;;;;;;;;;;4974730;28;20027;-81
2022/07/03 01:18:14;;;;;;;0.38;0.30;;;;;;;;;;4963694;28;20182;-80
2022/07/03 01:20:41;;;;;;;0.25;0.25;;;;;;;;;;4976323;28;20031;-82
2022/07/03 01:23:28;;;;;;;0.47;0.43;;;;;;;;;;4978327;28;20038;-82
2022/07/03 01:25:54;;;;;;;0.55;0.22;;;;;;;;;;4977323;28;20031;-83
2022/07/03 01:28:20;;;;;;;0.52;0.50;;;;;;;;;;4975204;28;20037;-80
2022/07/03 01:30:53;;;;;;;1.27;0.85;;;;;;;;;;4977695;28;20042;-80
2022/07/03 01:33:26;;;;;;;2.35;1.00;;;;;;;;;;4976189;28;20069;-81
2022/07/03 01:36:00;;;;;;;0.73;0.73;;;;;;;;;;4977947;28;20639;-80
2022/07/03 01:38:31;;;;;;;0.30;0.30;;;;;;;;;;4978441;28;20395;-81
2022/07/03 01:40:57;;;;;;;0.70;0.60;;;;;;;;;;4977039;28;20030;-80
2022/07/03 01:43:46;;;;;;;0.50;0.40;;;;;;;;;;4976727;28;20133;-80
2022/07/03 01:46:13;;;;;;;0.85;0.63;;;;;;;;;;4958312;28;20121;-79
2022/07/03 01:48:42;;;;;;;4.57;1.02;;;;;;;;;;4975293;28;20027;-80
2022/07/03 01:51:09;;;;;;;0.52;0.50;;;;;;;;;;4976928;28;20415;-80
2022/07/03 01:53:38;;;;;;;0.63;0.52;;;;;;;;;;4976085;28;20117;-81
2022/07/03 01:56:04;;;;;;;0.55;0.40;;;;;;;;;;4975529;28;20027;-81
2022/07/03 01:58:29;;;;;;;0.35;0.35;;;;;;;;;;4975726;28;20026;-82
2022/07/03 02:01:19;;;;;;;0.52;0.52;;;;;;;;;;4977839;28;20050;-82
2022/07/03 02:03:54;;;;;;;0.50;0.40;;;;;;;;;;4977859;28;20502;-79
2022/07/03 02:06:36;;;;;;;1.33;1.23;;;;;;;;;;4977595;28;20113;-81
2022/07/03 02:09:04;;;;;;;4.28;0.85;;;;;;;;;;4976743;28;20030;-82
2022/07/03 02:11:39;;;;;;;1.55;1.15;;;;;;;;;;4976671;28;20031;-83
2022/07/03 02:14:18;;;;;;;1.00;0.70;;;;;;;;;;4977519;28;20034;-82
2022/07/03 02:17:02;;;;;;;1.70;0.70;;;;;;;;;;4977204;28;20415;-82
2022/07/03 02:19:38;;;;;;;0.90;0.75;;;;;;;;;;4977562;28;20504;-82
2022/07/03 02:22:07;;;;;;;1.33;0.68;;;;;;;;;;4975612;28;20031;-83
2022/07/03 02:24:47;;;;;;;1.63;0.60;;;;;;;;;;4977514;28;20030;-82
2022/07/03 02:27:25;;;;;;;0.98;0.93;;;;;;;;;;4976765;28;20035;-83
2022/07/03 02:30:24;;;;;;;1.23;1.13;;;;;;;;;;4973589;28;20568;-80
2022/07/03 02:32:51;;;;;;;0.60;0.47;;;;;;;;;;4976016;28;20360;-78
2022/07/03 02:35:26;;;;;;;1.30;1.08;;;;;;;;;;4976167;28;20364;-77
2022/07/03 02:38:06;;;;;;;0.13;0.13;;;;;;;;;;4977291;28;20099;-78
2022/07/03 02:41:02;;;;;;;0.55;0.17;;;;;;;;;;4975272;28;20034;-78
2022/07/03 02:43:42;;;;;;;2.30;0.73;;;;;;;;;;4977259;28;20085;-77
2022/07/03 02:49:28;;;;;;;0.57;0.57;;;;;;;;;;4972266;28;20472;-77
2022/07/03 02:52:01;;;;;;;0.85;0.85;;;;;;;;;;4975208;28;20045;-78
2022/07/03 02:54:27;;;;;;;1.10;0.30;;;;;;;;;;4975849;28;20033;-78
2022/07/03 02:57:08;;;;;;;0.60;0.60;;;;;;;;;;4975969;28;20034;-77
2022/07/03 02:59:56;;;;;;;1.05;1.05;;;;;;;;;;4966706;28;20113;-77
2022/07/03 03:02:22;;;;;;;2.35;1.02;;;;;;;;;;4975753;28;20977;-77
2022/07/03 03:05:29;;;;;;;0.60;0.60;;;;;;;;;;4976003;28;20022;-77
2022/07/03 03:07:57;;;;;;;1.58;0.82;;;;;;;;;;4972935;28;20035;-78
2022/07/03 03:10:25;;;;;;;1.77;0.35;;;;;;;;;;4976505;28;20045;-77
2022/07/03 03:13:04;;;;;;;0.63;0.57;;;;;;;;;;4976458;28;20026;-77
2022/07/03 03:15:30;;;;;;;0.52;0.50;;;;;;;;;;4975538;28;20018;-77
2022/07/03 03:18:07;;;;;;;0.50;0.50;;;;;;;;;;4976324;28;20053;-78
2022/07/03 03:20:34;;;;;;;0.70;0.70;;;;;;;;;;4976067;28;20030;-77
2022/07/03 03:23:05;;;;;;;0.35;0.35;;;;;;;;;;4976758;28;20042;-77
2022/07/03 03:25:31;;;;;;;1.25;1.13;;;;;;;;;;4975373;28;20019;-77
2022/07/03 03:27:58;;;;;;;0.85;0.63;;;;;;;;;;4975405;28;20085;-77
2022/07/03 03:30:24;;;;;;;1.25;0.95;;;;;;;;;;4975780;28;20027;-77
2022/07/03 03:32:55;;;;;;;1.08;0.95;;;;;;;;;;4976014;28;20033;-78
2022/07/03 03:35:23;;;;;;;0.52;0.52;;;;;;;;;;4982036;28;20109;-80
2022/07/03 03:37:49;;;;;;;0.45;0.45;;;;;;;;;;4979669;28;20018;-79
2022/07/03 03:40:16;;;;;;;0.60;0.40;;;;;;;;;;4974304;28;20093;-79
2022/07/03 03:42:43;;;;;;;0.32;0.30;;;;;;;;;;4983862;28;20375;-80
2022/07/03 03:45:12;;;;;;;0.60;0.38;;;;;;;;;;4978256;28;20049;-79
2022/07/03 03:47:40;;;;;;;0.95;0.50;;;;;;;;;;4975473;28;20472;-79
2022/07/03 03:50:06;;;;;;;3.03;1.08;;;;;;;;;;4973776;28;20026;-79
2022/07/03 03:52:32;;;;;;;1.30;1.20;;;;;;;;;;4984397;28;20053;-79
2022/07/03 03:54:57;;;;;;;1.17;0.90;;;;;;;;;;4973656;28;20460;-78
2022/07/03 03:57:26;;;;;;;1.42;0.80;;;;;;;;;;4975186;28;20027;-79
2022/07/03 03:59:51;;;;;;;0.47;0.47;;;;;;;;;;4972238;28;20038;-78
2022/07/03 04:02:18;;;;;;;0.60;0.45;;;;;;;;;;4972762;28;20027;-79
2022/07/03 04:04:43;;;;;;;2.17;1.60;;;;;;;;;;4975131;28;20097;-79
2022/07/03 04:07:09;;;;;;;1.75;1.38;;;;;;;;;;4954951;28;20027;-79
2022/07/03 04:09:34;;;;;;;1.20;0.75;;;;;;;;;;4980232;28;20030;-78
2022/07/03 04:12:00;;;;;;;1.00;0.77;;;;;;;;;;4973891;28;20461;-80
2022/07/03 04:14:25;;;;;;;1.92;0.68;;;;;;;;;;4975399;28;20027;-79
2022/07/03 04:16:50;;;;;;;0.80;0.80;;;;;;;;;;4974270;28;20042;-80
2022/07/03 04:19:18;;;;;;;0.85;0.40;;;;;;;;;;4974655;28;20109;-78
2022/07/03 04:21:43;;;;;;;1.70;1.02;;;;;;;;;;4974109;28;20034;-78
2022/07/03 04:24:09;;;;;;;0.35;0.35;;;;;;;;;;4974959;28;20038;-80
2022/07/03 04:26:39;;;;;;;0.75;0.55;;;;;;;;;;4974768;28;20039;-80
2022/07/03 04:29:05;;;;;;;0.90;0.47;;;;;;;;;;4973479;28;20027;-80
2022/07/03 04:31:30;;;;;;;1.58;0.52;;;;;;;;;;4974762;28;20025;-78
2022/07/03 04:33:58;;;;;;;0.55;0.50;;;;;;;;;;4973474;28;20090;-79
2022/07/03 04:36:24;;;;;;;1.00;0.73;;;;;;;;;;4974060;28;20029;-79
2022/07/03 04:38:54;;;;;;;0.25;0.25;;;;;;;;;;4973940;28;20039;-79
2022/07/03 04:41:19;;;;;;;0.70;0.65;;;;;;;;;;4973941;28;20046;-80
2022/07/03 04:43:44;;;;;;;1.95;0.40;;;;;;;;;;4974512;28;20105;-80
2022/07/03 04:46:12;;;;;;;1.63;0.80;;;;;;;;;;4973166;28;20030;-78
2022/07/03 04:48:37;;;;;;;1.23;0.60;;;;;;;;;;4974541;28;20046;-78
2022/07/03 04:51:04;;;;;;;0.43;0.43;;;;;;;;;;4977174;28;20461;-77
2022/07/03 04:53:31;;;;;;;1.35;0.30;;;;;;;;;;4979199;28;20030;-79
2022/07/03 04:55:59;;;;;;;0.20;0.20;;;;;;;;;;4957918;28;20049;-79
2022/07/03 04:58:25;;;;;;;0.40;0.40;;;;;;;;;;4973141;28;20452;-79
2022/07/03 05:00:53;;;;;;;0.40;0.40;;;;;;;;;;4972360;28;20048;-79
2022/07/03 05:03:19;;;;;;;5.95;0.30;;;;;;;;;;4963596;28;20031;-79
2022/07/03 05:05:46;;;;;;;0.45;0.35;;;;;;;;;;4976836;28;20078;-79
2022/07/03 05:08:14;;;;;;;0.22;0.22;;;;;;;;;;4978051;28;20045;-80
2022/07/03 05:10:42;;;;;;;0.40;0.30;;;;;;;;;;4975948;28;20030;-79
2022/07/03 05:13:12;;;;;;;0.55;0.55;;;;;;;;;;4977820;28;20094;-79
2022/07/03 05:15:37;;;;;;;0.32;0.32;;;;;;;;;;4977805;28;20023;-79
2022/07/03 05:18:03;;;;;;;0.55;0.55;;;;;;;;;;4977839;28;20030;-78
2022/07/03 05:20:28;;;;;;;1.92;1.08;;;;;;;;;;4976124;28;20110;-79
2022/07/03 05:22:57;;;;;;;1.77;0.73;;;;;;;;;;4976899;28;20030;-80
2022/07/03 05:25:27;;;;;;;1.42;1.13;;;;;;;;;;4977200;28;20039;-79
2022/07/03 05:27:52;;;;;;;2.35;1.40;;;;;;;;;;4978191;28;20572;-79
2022/07/03 05:30:19;;;;;;;4.68;0.90;;;;;;;;;;4977408;28;20030;-79
2022/07/03 05:32:45;;;;;;;0.40;0.40;;;;;;;;;;4977245;28;20428;-78
2022/07/03 05:35:10;;;;;;;0.35;0.35;;;;;;;;;;4977709;28;20081;-79
2022/07/03 05:37:36;;;;;;;0.20;0.20;;;;;;;;;;4969904;28;20062;-79
2022/07/03 05:40:03;;;;;;;1.75;0.93;;;;;;;;;;4972111;28;20035;-78
2022/07/03 05:42:29;;;;;;;0.73;0.50;;;;;;;;;;4958606;28;20086;-78
2022/07/03 05:44:54;;;;;;;1.27;0.47;;;;;;;;;;4977591;28;20027;-80
2022/07/03 05:47:19;;;;;;;0.75;0.52;;;;;;;;;;4976674;28;20440;-78
2022/07/03 05:49:45;;;;;;;0.40;0.40;;;;;;;;;;4968476;28;20399;-80
2022/07/03 05:52:12;;;;;;;0.38;0.38;;;;;;;;;;4972914;28;20093;-78
2022/07/03 05:54:40;;;;;;;0.30;0.30;;;;;;;;;;4977506;28;20031;-78
2022/07/03 05:57:08;;;;;;;2.38;1.25;;;;;;;;;;4977564;28;20031;-78
2022/07/03 05:59:33;;;;;;;0.82;0.60;;;;;;;;;;4977533;28;20062;-79
2022/07/03 06:02:01;;;;;;;0.73;0.45;;;;;;;;;;4973935;28;20038;-78
2022/07/03 06:04:26;;;;;;;0.45;0.28;;;;;;;;;;4976371;28;20062;-78
2022/07/03 06:06:56;;;;;;;1.55;0.55;;;;;;;;;;4969784;28;20070;-78
2022/07/03 06:09:24;;;;;;;0.52;0.52;;;;;;;;;;4977592;28;20034;-78
2022/07/03 06:11:49;;;;;;;1.70;0.57;;;;;;;;;;4977594;28;20106;-78
2022/07/03 06:14:17;;;;;;;0.30;0.20;;;;;;;;;;4976637;28;20118;-79
2022/07/03 06:16:42;;;;;;;1.23;0.68;;;;;;;;;;4975239;28;20498;-79
2022/07/03 06:19:07;;;;;;;0.60;0.60;;;;;;;;;;4975430;28;20050;-78
2022/07/03 06:21:35;;;;;;;0.98;0.45;;;;;;;;;;4976534;28;20031;-79
2022/07/03 06:24:00;;;;;;;0.77;0.73;;;;;;;;;;4977348;28;20085;-77
2022/07/03 06:26:29;;;;;;;2.03;0.77;;;;;;;;;;4976398;28;20034;-79
2022/07/03 06:28:54;;;;;;;0.60;0.40;;;;;;;;;;4942164;28;20514;-79
2022/07/03 06:31:20;;;;;;;0.20;0.20;;;;;;;;;;4975419;28;20157;-79
2022/07/03 06:33:45;;;;;;;8.32;2.72;;;;;;;;;;4976564;28;20026;-79
2022/07/03 06:36:10;;;;;;;0.45;0.45;;;;;;;;;;4976338;28;20027;-78
2022/07/03 06:38:38;;;;;;;0.47;0.47;;;;;;;;;;4976263;28;20038;-79
2022/07/03 06:41:03;;;;;;;0.47;0.47;;;;;;;;;;4973554;28;20041;-79
2022/07/03 06:43:31;;;;;;;0.30;0.30;;;;;;;;;;4958007;28;20027;-78
2022/07/03 06:45:59;;;;;;;0.38;0.38;;;;;;;;;;4974020;28;20027;-77
2022/07/03 06:48:26;;;;;;;0.50;0.50;;;;;;;;;;4976803;28;20456;-79
2022/07/03 06:50:52;;;;;;;1.15;1.02;;;;;;;;;;4974273;28;20110;-79
2022/07/03 06:53:22;;;;;;;2.35;0.85;;;;;;;;;;4976425;28;20106;-77
2022/07/03 06:55:47;;;;;;;0.52;0.52;;;;;;;;;;4976437;28;20391;-77
2022/07/03 06:58:17;;;;;;;2.38;1.52;;;;;;;;;;4977144;28;20045;-78
2022/07/03 07:00:42;;;;;;;0.32;0.32;;;;;;;;;;4974976;28;20030;-78
2022/07/03 07:03:10;;;;;;;2.85;0.70;;;;;;;;;;4975741;28;20045;-78
2022/07/03 07:05:36;;;;;;;0.85;0.80;;;;;;;;;;4975732;28;20044;-77
2022/07/03 07:08:01;;;;;;;0.68;0.63;;;;;;;;;;4975779;28;20038;-79
2022/07/03 07:10:26;;;;;;;0.40;0.40;;;;;;;;;;4974576;28;20476;-78
2022/07/03 07:12:52;;;;;;;1.45;0.50;;;;;;;;;;4976367;28;20035;-79
2022/07/03 07:15:17;;;;;;;1.95;0.98;;;;;;;;;;4973244;28;20467;-77
2022/07/03 07:17:42;;;;;;;0.95;0.60;;;;;;;;;;4976325;28;20089;-79
2022/07/03 07:20:08;;;;;;;2.15;0.63;;;;;;;;;;4975407;28;20105;-80
2022/07/03 07:22:34;;;;;;;2.22;0.85;;;;;;;;;;4975085;28;20433;-79
2022/07/03 07:25:00;;;;;;;0.65;0.65;;;;;;;;;;4973578;28;20093;-79
2022/07/03 07:27:25;;;;;;;1.77;1.10;;;;;;;;;;4975482;28;20384;-80
2022/07/03 07:29:53;;;;;;;1.80;0.88;;;;;;;;;;4973445;28;20118;-79
2022/07/03 07:32:18;;;;;;;1.30;1.15;;;;;;;;;;4973556;28;20030;-83
2022/07/03 07:34:48;;;;;;;0.70;0.70;;;;;;;;;;4974812;28;20035;-77
2022/07/03 07:37:16;;;;;;;1.05;0.90;;;;;;;;;;4975415;28;20117;-75
2022/07/03 07:39:41;;;;;;;0.75;0.57;;;;;;;;;;4974886;28;20468;-77
2022/07/03 07:42:07;;;;;;;0.98;0.57;;;;;;;;;;4974060;28;20037;-79
2022/07/03 07:44:34;;;;;;;0.47;0.47;;;;;;;;;;4973971;28;20124;-78
2022/07/03 07:46:59;;;;;;;0.65;0.45;;;;;;;;;;4973232;28;20097;-81
2022/07/03 07:49:27;;;;;;;1.20;0.90;;;;;;;;;;4974355;28;20046;-79
2022/07/03 07:51:52;;;;;;;2.05;0.90;;;;;;;;;;4974974;28;20035;-80
2022/07/03 07:54:18;;;;;;;1.33;0.65;;;;;;;;;;4973747;28;20092;-78
2022/07/03 07:56:46;;;;;;;1.15;0.50;;;;;;;;;;4974715;28;20058;-79
2022/07/03 07:59:14;;;;;;;1.02;0.65;;;;;;;;;;4975150;28;20027;-78
2022/07/03 08:07:14;;;;;;;1.25;0.68;;;;;;;;;;4966655;28;20082;-80
2022/07/03 08:09:52;;;;;;;0.65;0.65;;;;;;;;;;4975438;28;20516;-79
2022/07/03 08:12:18;;;;;;;3.65;1.40;;;;;;;;;;4974771;28;20109;-78
2022/07/03 08:14:43;;;;;;;1.83;0.63;;;;;;;;;;4975499;28;20111;-79
2022/07/03 08:17:09;;;;;;;1.50;0.73;;;;;;;;;;4970870;28;20059;-78
2022/07/03 08:19:37;;;;;;;0.40;0.40;;;;;;;;;;4972721;28;20035;-80
2022/07/03 08:22:03;;;;;;;4.57;0.60;;;;;;;;;;4955224;28;20031;-79
2022/07/03 08:24:30;;;;;;;0.45;0.38;;;;;;;;;;4960845;28;20031;-79
2022/07/03 08:26:55;;;;;;;1.52;0.95;;;;;;;;;;4973697;28;20027;-78
2022/07/03 08:29:21;;;;;;;0.75;0.73;;;;;;;;;;4970113;28;20035;-78
2022/07/03 08:31:49;;;;;;;0.60;0.60;;;;;;;;;;4974413;28;20034;-78
2022/07/03 08:34:14;;;;;;;1.00;0.70;;;;;;;;;;4972687;28;20373;-78
2022/07/03 08:36:41;;;;;;;0.82;0.82;;;;;;;;;;4974315;28;20026;-82
2022/07/03 08:39:07;;;;;;;0.30;0.30;;;;;;;;;;4974681;28;20077;-78
2022/07/03 08:41:35;;;;;;;1.27;1.00;;;;;;;;;;4973705;28;20034;-78
2022/07/03 08:44:05;;;;;;;0.63;0.50;;;;;;;;;;4972939;28;20031;-78
2022/07/03 08:46:34;;;;;;;0.40;0.40;;;;;;;;;;4973772;28;20038;-79
2022/07/03 08:49:01;;;;;;;0.40;0.40;;;;;;;;;;4973957;28;20483;-78
2022/07/03 08:51:27;;;;;;;0.60;0.60;;;;;;;;;;4970804;28;20062;-79
2022/07/03 08:53:54;;;;;;;1.42;0.80;;;;;;;;;;4974623;28;20050;-79
2022/07/03 08:56:20;;;;;;;0.68;0.60;;;;;;;;;;4974658;28;20599;-79
2022/07/03 08:58:48;;;;;;;0.63;0.40;;;;;;;;;;4954274;28;20043;-78
2022/07/03 09:01:22;;;;;;;0.75;0.65;;;;;;;;;;4973620;28;20033;-80
2022/07/03 09:03:48;;;;;;;1.45;0.82;;;;;;;;;;4974413;28;20081;-79
2022/07/03 09:06:14;;;;;;;0.30;0.30;;;;;;;;;;4974345;28;20041;-79
2022/07/03 09:08:40;;;;;;;1.00;0.90;;;;;;;;;;4975017;28;20031;-79
2022/07/03 09:11:06;;;;;;;0.57;0.43;;;;;;;;;;4973386;28;20031;-79
2022/07/03 09:13:32;;;;;;;0.52;0.50;;;;;;;;;;4974919;28;20026;-78
2022/07/03 09:15:57;;;;;;;0.47;0.47;;;;;;;;;;4973584;28;20448;-79
2022/07/03 09:18:42;;;;;;;0.32;0.32;;;;;;;;;;4973663;28;20030;-78
2022/07/03 09:21:11;;;;;;;0.63;0.63;;;;;;;;;;4973348;28;20057;-79
2022/07/03 09:23:42;;;;;;;0.50;0.50;;;;;;;;;;4974096;28;20045;-79
2022/07/03 09:26:15;;;;;;;1.55;0.63;;;;;;;;;;4973420;28;20444;-79
2022/07/03 09:28:47;;;;;;;0.95;0.95;;;;;;;;;;4964058;28;20157;-77
2022/07/03 09:31:16;;;;;;;1.38;0.75;;;;;;;;;;4955730;28;20038;-80
2022/07/03 09:33:48;;;;;;;2.58;0.70;;;;;;;;;;4962416;28;20396;-78
2022/07/03 09:36:13;;;;;;;;;;;;;;;;;;4975089;28;20062;-79
2022/07/03 09:38:46;;;;;;;3.73;0.90;;;;;;;;;;4974379;28;19922;-81
2022/07/03 09:41:11;;;;;;;1.35;0.75;;;;;;;;;;4974479;28;20317;-79
2022/07/03 09:43:41;;;;;;;0.30;0.28;;;;;;;;;;4977405;28;20027;-81
2022/07/03 09:46:07;;;;;;;1.20;0.98;;;;;;;;;;4975953;28;20018;-81
2022/07/03 09:48:40;;;;;;;0.65;0.65;;;;;;;;;;4978112;28;20033;-78
2022/07/03 09:51:11;;;;;;;0.45;0.45;;;;;;;;;;4977564;28;20057;-79
2022/07/03 09:53:52;;;;;;;6.38;0.75;;;;;;;;;;4978823;28;20089;-80
2022/07/03 09:56:21;;;;;;;2.97;1.55;;;;;;;;;;4977639;28;20098;-81
2022/07/03 09:59:21;;;;;;;1.85;0.85;;;;;;;;;;4977090;28;20034;-79
2022/07/03 10:01:46;;;;;;;0.43;0.40;;;;;;;;;;4966243;28;20101;-79
2022/07/03 10:04:12;;;;;;;1.00;0.63;;;;;;;;;;4977529;28;20400;-79
2022/07/03 10:06:50;;;;;;;1.75;0.70;;;;;;;;;;4973107;28;20027;-79
2022/07/03 10:09:23;;;;;;;0.30;0.30;;;;;;;;;;4976706;28;20031;-80
2022/07/03 10:12:02;;;;;;;0.50;0.40;;;;;;;;;;4977552;28;20050;-79
2022/07/03 10:14:31;;;;;;;2.75;1.13;;;;;;;;;;4976528;28;20031;-81
2022/07/03 10:17:06;;;;;;;1.08;0.22;;;;;;;;;;4976430;28;20360;-81
2022/07/03 10:19:40;;;;;;;0.85;0.68;;;;;;;;;;4975824;28;20042;-82
2022/07/03 10:22:11;;;;;;;0.90;0.47;;;;;;;;;;4976941;28;20027;-81
2022/07/03 10:24:47;;;;;;;0.13;0.13;;;;;;;;;;4976305;28;20027;-81
2022/07/03 10:27:12;;;;;;;0.30;0.30;;;;;;;;;;4976192;28;20128;-81
2022/07/03 10:29:38;;;;;;;3.28;0.50;;;;;;;;;;4976627;28;20431;-78
2022/07/03 10:32:05;;;;;;;0.73;0.60;;;;;;;;;;4976360;28;20038;-81
2022/07/03 10:34:31;;;;;;;1.20;0.77;;;;;;;;;;4971833;28;20078;-81
2022/07/03 10:37:02;;;;;;;0.40;0.38;;;;;;;;;;4975025;28;20026;-80
2022/07/03 10:39:49;;;;;;;0.40;0.40;;;;;;;;;;4959624;28;20034;-79
2022/07/03 10:45:12;;;;;;;0.45;0.35;;;;;;;;;;4974588;28;20041;-81
2022/07/03 10:47:40;;;;;;;2.45;0.52;;;;;;;;;;4975995;28;20038;-81
2022/07/03 10:50:13;;;;;;;0.30;0.30;;;;;;;;;;4976647;28;20356;-83
2022/07/03 10:52:39;;;;;;;0.52;0.40;;;;;;;;;;4976880;28;20027;-81
2022/07/03 10:55:06;;;;;;;0.38;0.20;;;;;;;;;;4974825;28;20157;-80
2022/07/03 10:57:32;;;;;;;0.40;0.35;;;;;;;;;;4975883;28;20022;-82
2022/07/03 10:59:58;;;;;;;0.28;0.28;;;;;;;;;;4971635;28;20054;-80
2022/07/03 11:02:35;;;;;;;1.17;0.70;;;;;;;;;;4976684;28;20019;-81
2022/07/03 11:05:02;;;;;;;1.85;1.10;;;;;;;;;;4975589;28;20150;-82
2022/07/03 11:07:34;;;;;;;0.95;0.40;;;;;;;;;;4977231;28;20038;-82
2022/07/03 11:10:16;;;;;;;;;;;;;;;;;;4975230;28;20045;-81
2022/07/03 11:13:00;;;;;;;0.30;0.28;;;;;;;;;;4975517;28;19971;-83
2022/07/03 11:15:41;;;;;;;0.45;0.45;;;;;;;;;;4976387;28;20432;-81
2022/07/03 11:18:12;;;;;;;0.30;0.30;;;;;;;;;;4971816;28;20065;-79
2022/07/03 11:20:37;;;;;;;0.30;0.30;;;;;;;;;;4974917;28;20030;-79
2022/07/03 11:23:07;;;;;;;0.38;0.30;;;;;;;;;;4969630;28;20035;-83
2022/07/03 11:25:39;;;;;;;0.43;0.43;;;;;;;;;;4973003;28;20436;-82
2022/07/03 11:28:08;;;;;;;0.80;0.60;;;;;;;;;;4975905;28;20034;-83
2022/07/03 11:30:33;;;;;;;0.43;0.43;;;;;;;;;;4972525;28;20066;-80
2022/07/03 11:33:47;;;;;;;0.98;0.30;;;;;;;;;;4971431;28;20065;-83
2022/07/03 11:36:15;;;;;;;0.57;0.57;;;;;;;;;;4971935;28;20931;-80
2022/07/03 11:38:41;;;;;;;0.30;0.30;;;;;;;;;;4973905;28;20464;-82
2022/07/03 11:41:09;;;;;;;3.60;1.13;;;;;;;;;;4973240;28;20035;-82
2022/07/03 11:43:35;;;;;;;0.30;0.30;;;;;;;;;;4977810;28;20073;-79
2022/07/03 11:46:03;;;;;;;0.47;0.47;;;;;;;;;;4980172;28;20360;-77
2022/07/03 11:48:30;;;;;;;1.05;0.73;;;;;;;;;;4976448;28;20081;-83
2022/07/03 11:51:03;;;;;;;0.65;0.65;;;;;;;;;;4970556;28;20035;-76
2022/07/03 11:53:36;;;;;;;0.90;0.70;;;;;;;;;;4974811;28;20422;-82
2022/07/03 11:56:16;;;;;;;0.40;0.40;;;;;;;;;;4974648;28;20077;-81
2022/07/03 11:58:46;;;;;;;0.20;0.20;;;;;;;;;;4971916;28;20057;-80
2022/07/03 12:01:27;;;;;;;0.40;0.40;;;;;;;;;;4974773;28;20057;-80
2022/07/03 12:04:14;;;;;;;0.32;0.20;;;;;;;;;;4970926;28;20367;-82
2022/07/03 12:06:40;;;;;;;0.20;0.20;;;;;;;;;;4973083;28;20034;-82
2022/07/03 12:09:35;;;;;;;0.15;0.15;;;;;;;;;;4975514;28;20026;-83
2022/07/03 12:12:10;;;;;;;0.47;0.47;;;;;;;;;;4969013;28;20931;-79
2022/07/03 12:15:03;;;;;;;0.73;0.73;;;;;;;;;;4968174;28;20034;-82
2022/07/03 12:17:34;;;;;;;0.20;0.20;;;;;;;;;;4972437;28;20042;-81
2022/07/03 12:20:01;;;;;;;0.20;0.20;;;;;;;;;;4972803;28;20429;-81
2022/07/03 12:22:33;;;;;;;0.75;0.60;;;;;;;;;;4972703;28;20046;-80
2022/07/03 12:25:01;;;;;;;0.50;0.30;;;;;;;;;;4969749;28;20061;-81
2022/07/03 12:27:27;;;;;;;1.65;0.73;;;;;;;;;;4971321;28;20883;-79
2022/07/03 12:29:54;;;;;;;0.50;0.50;;;;;;;;;;4968857;28;20038;-82
2022/07/03 12:32:20;;;;;;;0.30;0.30;;;;;;;;;;4972964;28;20031;-82
2022/07/03 12:34:50;;;;;;;0.57;0.40;;;;;;;;;;4974535;28;20043;-82
2022/07/03 12:37:15;;;;;;;1.17;1.00;;;;;;;;;;4973884;28;20029;-80
2022/07/03 12:39:45;;;;;;;0.40;0.40;;;;;;;;;;4973461;28;20026;-82
2022/07/03 12:42:21;;;;;;;0.98;0.73;;;;;;;;;;4973172;28;20037;-81
2022/07/03 12:45:02;;;;;;;1.55;0.50;;;;;;;;;;4967675;28;20035;-81
2022/07/03 12:47:30;;;;;;;0.10;0.10;;;;;;;;;;4965791;28;20034;-83
2022/07/03 12:49:56;;;;;;;0.35;0.30;;;;;;;;;;4972306;28;20100;-80
2022/07/03 12:52:27;;;;;;;0.63;0.20;;;;;;;;;;4974199;28;20030;-81
2022/07/03 12:54:52;;;;;;;1.88;0.38;;;;;;;;;;4973507;28;20408;-79
2022/07/03 13:00:05;;;;;;;0.38;0.38;;;;;;;;;;4969909;28;20436;-79
2022/07/03 13:02:31;;;;;;;0.40;0.30;;;;;;;;;;4973923;28;20027;-87
2022/07/03 13:04:58;;;;;;;0.17;0.17;;;;;;;;;;4971244;28;20031;-88
2022/07/03 13:07:30;;;;;;;0.95;0.50;;;;;;;;;;4971006;28;20480;-87
2022/07/03 13:09:59;;;;;;;0.30;0.30;;;;;;;;;;4964026;28;20027;-82
2022/07/03 13:12:24;;;;;;;0.57;0.50;;;;;;;;;;4967317;28;20036;-81
2022/07/03 13:15:00;;;;;;;0.40;0.40;;;;;;;;;;4974627;28;20034;-84
2022/07/03 13:17:53;;;;;;;0.30;0.30;;;;;;;;;;4982580;28;20045;-83
2022/07/03 13:20:22;;;;;;;0.20;0.20;;;;;;;;;;4976987;28;20551;-81
2022/07/03 13:22:48;;;;;;;1.60;0.47;;;;;;;;;;4975620;28;20039;-81
2022/07/03 13:25:17;;;;;;;1.55;0.20;;;;;;;;;;4977700;28;20445;-82
2022/07/03 13:27:45;;;;;;;0.30;0.30;;;;;;;;;;4978078;28;20059;-81
2022/07/03 13:30:14;;;;;;;3.63;0.52;;;;;;;;;;4976940;28;20026;-82
2022/07/03 13:32:39;;;;;;;1.52;0.80;;;;;;;;;;4975409;28;20122;-81
2022/07/03 13:35:06;;;;;;;0.73;0.50;;;;;;;;;;4976521;28;20118;-82
2022/07/03 13:37:34;;;;;;;0.40;0.40;;;;;;;;;;4977422;28;20023;-81
2022/07/03 13:40:03;;;;;;;0.52;0.50;;;;;;;;;;4976560;28;20110;-80
2022/07/03 13:42:28;;;;;;;0.32;0.32;;;;;;;;;;4977440;28;20094;-82
2022/07/03 13:44:54;;;;;;;0.40;0.35;;;;;;;;;;4977003;28;20073;-80
2022/07/03 13:47:24;;;;;;;1.08;0.22;;;;;;;;;;4976713;28;20026;-81
2022/07/03 13:49:49;;;;;;;2.47;1.05;;;;;;;;;;4977126;28;20039;-81
2022/07/03 13:52:14;;;;;;;0.80;0.80;;;;;;;;;;4977897;28;20508;-80
2022/07/03 13:54:42;;;;;;;0.60;0.43;;;;;;;;;;4978072;28;20332;-83
2022/07/03 13:57:07;;;;;;;0.20;0.20;;;;;;;;;;4977128;28;20023;-82
2022/07/03 13:59:33;;;;;;;0.10;0.10;;;;;;;;;;4977732;28;20076;-81
2022/07/03 14:01:58;;;;;;;0.30;0.30;;;;;;;;;;4977059;28;20023;-82
2022/07/03 14:04:26;;;;;;;0.88;0.63;;;;;;;;;;4976851;28;20121;-82
2022/07/03 14:06:52;;;;;;;0.68;0.57;;;;;;;;;;4976648;28;20038;-83
2022/07/03 14:09:18;;;;;;;2.17;0.40;;;;;;;;;;4975392;28;20035;-82
2022/07/03 14:11:47;;;;;;;3.00;0.60;;;;;;;;;;4976793;28;20476;-82
2022/07/03 14:14:12;;;;;;;0.30;0.20;;;;;;;;;;4977025;28;20032;-83
2022/07/03 14:16:40;;;;;;;0.52;0.35;;;;;;;;;;4977313;28;20113;-81
2022/07/03 14:19:08;;;;;;;0.10;0.10;;;;;;;;;;4977515;28;20031;-82
2022/07/03 14:21:34;;;;;;;0.30;0.30;;;;;;;;;;4975261;28;20433;-81
2022/07/03 14:24:02;;;;;;;0.50;0.50;;;;;;;;;;4976736;28;20110;-83
2022/07/03 14:34:40;;;;;;;1.08;0.45;;;;;;;;;;4976190;28;20053;-83
2022/07/03 14:37:08;;;;;;;0.20;0.20;;;;;;;;;;4977320;28;20026;-82
2022/07/03 14:39:34;;;;;;;0.20;0.17;;;;;;;;;;4977294;28;20034;-82
2022/07/03 14:42:02;;;;;;;0.45;0.40;;;;;;;;;;4978548;28;20110;-84
2022/07/03 14:44:28;;;;;;;0.25;0.20;;;;;;;;;;4978689;28;20050;-84
2022/07/03 14:46:53;;;;;;;0.10;0.10;;;;;;;;;;4976585;28;20475;-81
2022/07/03 14:49:19;;;;;;;0.55;0.55;;;;;;;;;;4977338;28;20030;-82
2022/07/03 14:51:45;;;;;;;0.68;0.52;;;;;;;;;;4975989;28;20654;-82
2022/07/03 14:54:11;;;;;;;0.10;0.10;;;;;;;;;;4975710;28;20034;-82
2022/07/03 14:56:40;;;;;;;0.20;0.20;;;;;;;;;;4976102;28;20042;-82
2022/07/03 14:59:09;;;;;;;0.88;0.50;;;;;;;;;;4974980;28;20082;-81
2022/07/03 15:01:38;;;;;;;1.52;0.70;;;;;;;;;;4976734;28;20054;-82
2022/07/03 15:04:12;;;;;;;1.98;0.45;;;;;;;;;;4958995;28;20093;-82
2022/07/03 15:06:37;;;;;;;0.43;0.25;;;;;;;;;;4975882;28;20042;-82
2022/07/03 15:09:04;;;;;;;0.70;0.50;;;;;;;;;;4976584;28;20073;-82
2022/07/03 15:14:47;;;;;;;0.52;0.40;;;;;;;;;;4959184;28;20128;-81
2022/07/03 15:17:14;;;;;;;0.13;0.13;;;;;;;;;;4959062;28;20037;-81
2022/07/03 15:19:43;;;;;;;0.30;0.30;;;;;;;;;;4959411;28;20034;-81
2022/07/03 15:22:10;;;;;;;0.30;0.30;;;;;;;;;;4976360;28;20035;-82
2022/07/03 15:24:36;;;;;;;1.52;0.57;;;;;;;;;;4975825;28;20026;-81